Time;durP1;ratioP1;P1;durP2;ratioP2;P2;SDS_P1;SDS_P2;PMS_P1;PMS_P2;Temp;Humidity;BMP_temperature;BMP_pressure;BME280_temperature;BME280_humidity;BME280_pressure;Samples;Min_cycle;Max_cycle;Signal;HPM_P1;HPM_P2
2021/05/14 00:00:43;;;;;;;1999.90;999.90;;;12.40;99.90;;;;;;5075193;28;20402;-65
2021/05/14 00:03:09;;;;;;;1999.90;999.90;;;12.30;99.90;;;;;;5075428;28;20203;-64
2021/05/14 00:05:36;;;;;;;1999.90;999.90;;;12.10;99.90;;;;;;5073635;28;20245;-62
2021/05/14 00:08:02;;;;;;;1999.90;999.90;;;12.10;99.90;;;;;;5072773;28;20270;-61
2021/05/14 00:10:28;;;;;;;1999.90;999.90;;;12.00;99.90;;;;;;5072637;28;20401;-63
2021/05/14 00:12:54;;;;;;;1999.90;999.90;;;11.90;99.90;;;;;;5072739;28;20412;-63
2021/05/14 00:15:20;;;;;;;1999.90;999.90;;;11.80;99.90;;;;;;5072243;28;20245;-63
2021/05/14 00:17:46;;;;;;;1999.90;999.90;;;11.90;99.90;;;;;;5072545;28;20821;-63
2021/05/14 00:20:13;;;;;;;1999.90;999.90;;;11.80;99.90;;;;;;5072453;28;20964;-63
2021/05/14 00:22:38;;;;;;;1999.90;999.90;;;11.70;99.90;;;;;;5072422;28;20928;-63
2021/05/14 00:25:06;;;;;;;1999.90;999.90;;;11.70;99.90;;;;;;5072060;28;20425;-63
2021/05/14 00:27:32;;;;;;;1999.90;999.90;;;11.60;99.90;;;;;;5072349;28;20174;-63
2021/05/14 00:29:58;;;;;;;1999.90;999.90;;;11.50;99.90;;;;;;5072335;28;20416;-64
2021/05/14 00:32:23;;;;;;;1999.90;999.90;;;11.50;99.90;;;;;;5072327;28;20177;-64
2021/05/14 00:34:49;;;;;;;1999.90;999.90;;;11.50;99.90;;;;;;5071865;28;20548;-63
2021/05/14 00:37:15;;;;;;;1999.90;999.90;;;11.60;99.90;;;;;;5072259;28;20167;-64
2021/05/14 00:39:40;;;;;;;1999.90;999.90;;;11.60;99.90;;;;;;5072217;28;20169;-64
2021/05/14 00:42:06;;;;;;;1999.90;999.90;;;11.60;99.90;;;;;;5072211;28;20163;-61
2021/05/14 00:44:45;;;;;;;1999.90;999.90;;;11.50;99.90;;;;;;5071989;28;20199;-62
2021/05/14 00:47:10;;;;;;;1999.90;999.90;;;11.60;99.90;;;;;;5072248;28;20793;-61
2021/05/14 00:49:38;;;;;;;1999.90;999.90;;;11.60;99.90;;;;;;5072255;28;20476;-61
2021/05/14 00:52:04;;;;;;;1999.90;999.90;;;11.50;99.90;;;;;;5072126;28;20250;-61
2021/05/14 00:54:31;;;;;;;1999.90;999.90;;;11.50;99.90;;;;;;5071897;28;20457;-61
2021/05/14 00:56:58;;;;;;;1999.90;999.90;;;11.50;99.90;;;;;;5071691;28;20458;-61
2021/05/14 00:59:25;;;;;;;1999.90;999.90;;;11.40;99.90;;;;;;5071264;28;20420;-62
2021/05/14 01:01:50;;;;;;;1999.90;999.90;;;11.40;99.90;;;;;;5072142;28;20455;-61
2021/05/14 01:04:17;;;;;;;1999.90;999.90;;;11.40;99.90;;;;;;5071780;28;20441;-61
2021/05/14 01:06:43;;;;;;;1999.90;999.90;;;11.40;99.90;;;;;;5071597;28;20409;-60
2021/05/14 01:09:09;;;;;;;1999.90;999.90;;;11.30;99.90;;;;;;5071918;28;20856;-64
2021/05/14 01:11:35;;;;;;;1999.90;999.90;;;11.30;99.90;;;;;;5071821;28;20504;-62
2021/05/14 01:14:00;;;;;;;1999.90;999.90;;;11.30;99.90;;;;;;5071638;28;20444;-63
2021/05/14 01:16:27;;;;;;;1999.90;999.90;;;11.20;99.90;;;;;;5071535;28;20866;-63
2021/05/14 01:18:54;;;;;;;1999.90;999.90;;;11.10;99.90;;;;;;5071912;28;20180;-64
2021/05/14 01:21:21;;;;;;;1999.90;999.90;;;11.10;99.90;;;;;;5071801;28;20966;-63
2021/05/14 01:23:47;;;;;;;1999.90;999.90;;;11.10;99.90;;;;;;5071605;28;20418;-66
2021/05/14 01:26:16;;;;;;;1999.90;999.90;;;11.00;99.90;;;;;;5071547;28;20890;-65
2021/05/14 01:28:42;;;;;;;1999.90;999.90;;;11.00;99.90;;;;;;5071653;28;20399;-67
2021/05/14 01:31:08;;;;;;;1999.90;999.90;;;10.90;99.90;;;;;;5071718;28;20457;-64
2021/05/14 01:33:34;;;;;;;1999.90;999.90;;;10.90;99.90;;;;;;5071443;28;20416;-66
2021/05/14 01:36:02;;;;;;;1999.90;999.90;;;10.90;99.90;;;;;;5071389;28;20428;-64
2021/05/14 01:38:27;;;;;;;1999.90;999.90;;;10.90;99.90;;;;;;5071566;28;20486;-66
2021/05/14 01:40:53;;;;;;;1999.90;999.90;;;10.90;99.90;;;;;;5071516;28;20485;-65
2021/05/14 01:43:19;;;;;;;1999.90;999.90;;;10.80;99.90;;;;;;5071753;28;20173;-66
2021/05/14 01:45:45;;;;;;;1999.90;999.90;;;10.80;99.90;;;;;;5071163;28;20193;-65
2021/05/14 01:48:10;;;;;;;1999.90;999.90;;;10.70;99.90;;;;;;5071507;28;20666;-64
2021/05/14 01:50:36;;;;;;;1999.90;999.90;;;10.70;99.90;;;;;;5071613;28;20414;-64
2021/05/14 01:53:02;;;;;;;1999.90;999.90;;;10.70;99.90;;;;;;5071462;28;20177;-66
2021/05/14 01:55:28;;;;;;;1999.90;999.90;;;10.70;99.90;;;;;;5071025;28;20206;-63
2021/05/14 01:57:53;;;;;;;1999.90;999.90;;;10.70;99.90;;;;;;5071470;28;20174;-63
2021/05/14 02:00:20;;;;;;;1999.90;999.90;;;10.70;99.90;;;;;;5071603;28;20181;-63
2021/05/14 02:02:45;;;;;;;1999.90;999.90;;;10.70;99.90;;;;;;5071315;28;20281;-63
2021/05/14 02:05:11;;;;;;;1999.90;999.90;;;10.70;99.90;;;;;;5070885;28;20540;-64
2021/05/14 02:07:37;;;;;;;1999.90;999.90;;;10.70;99.90;;;;;;5071374;28;20655;-61
2021/05/14 02:10:04;;;;;;;1999.90;999.90;;;10.70;99.90;;;;;;5071825;28;20419;-62
2021/05/14 02:12:29;;;;;;;1999.90;999.90;;;10.70;99.90;;;;;;5074872;28;20174;-63
2021/05/14 02:14:55;;;;;;;1999.90;999.90;;;10.70;99.90;;;;;;5074652;28;20544;-63
2021/05/14 02:17:20;;;;;;;1999.90;999.90;;;10.60;99.90;;;;;;5074908;28;20164;-64
2021/05/14 02:19:46;;;;;;;1999.90;999.90;;;10.60;99.90;;;;;;5074878;28;20182;-64
2021/05/14 02:22:12;;;;;;;1999.90;999.90;;;10.60;99.90;;;;;;5074814;28;20186;-63
2021/05/14 02:24:37;;;;;;;1999.90;999.90;;;10.60;99.90;;;;;;5074655;28;20269;-63
2021/05/14 02:27:04;;;;;;;1999.90;999.90;;;10.50;99.90;;;;;;5074367;28;20705;-64
2021/05/14 02:29:33;;;;;;;1999.90;999.90;;;10.50;99.90;;;;;;5074902;28;20541;-63
2021/05/14 02:32:00;;;;;;;1999.90;999.90;;;10.40;99.90;;;;;;5074727;28;20408;-64
2021/05/14 02:34:25;;;;;;;1999.90;999.90;;;10.40;99.90;;;;;;5074558;28;20458;-62
2021/05/14 02:36:51;;;;;;;1999.90;999.90;;;10.30;99.90;;;;;;5074243;28;20447;-65
2021/05/14 02:39:17;;;;;;;1999.90;999.90;;;10.30;99.90;;;;;;5074520;28;20166;-67
2021/05/14 02:41:42;;;;;;;1999.90;999.90;;;10.20;99.90;;;;;;5074743;28;20216;-65
2021/05/14 02:44:08;;;;;;;1999.90;999.90;;;10.20;99.90;;;;;;5074373;28;20606;-63
2021/05/14 02:46:34;;;;;;;1999.90;999.90;;;10.00;99.90;;;;;;5074159;28;20174;-63
2021/05/14 02:49:00;;;;;;;1999.90;999.90;;;10.10;99.90;;;;;;5074356;28;20183;-63
2021/05/14 02:51:25;;;;;;;1999.90;999.90;;;10.00;99.90;;;;;;5074289;28;20419;-63
2021/05/14 02:53:51;;;;;;;1999.90;999.90;;;9.90;99.90;;;;;;5074078;28;20199;-63
2021/05/14 02:56:17;;;;;;;1999.90;999.90;;;9.90;99.90;;;;;;5073972;28;20170;-66
2021/05/14 02:58:43;;;;;;;1999.90;999.90;;;9.90;99.90;;;;;;5074368;28;20178;-63
2021/05/14 03:01:08;;;;;;;1999.90;999.90;;;9.80;99.90;;;;;;5074099;28;20225;-63
2021/05/14 03:03:34;;;;;;;1999.90;999.90;;;9.70;99.90;;;;;;5074128;28;20545;-62
2021/05/14 03:06:00;;;;;;;1999.90;999.90;;;9.70;99.90;;;;;;5073493;28;20539;-64
2021/05/14 03:08:25;;;;;;;1999.90;999.90;;;9.70;99.90;;;;;;5073895;28;20168;-65
2021/05/14 03:10:51;;;;;;;1999.90;999.90;;;9.60;99.90;;;;;;5073882;28;20174;-64
2021/05/14 03:13:16;;;;;;;1999.90;999.90;;;9.60;99.90;;;;;;5073949;28;20183;-65
2021/05/14 03:15:42;;;;;;;1999.90;999.90;;;9.50;99.90;;;;;;5072704;28;20204;-62
2021/05/14 03:18:08;;;;;;;1999.90;999.90;;;9.50;99.90;;;;;;5073790;28;20607;-66
2021/05/14 03:20:33;;;;;;;1999.90;999.90;;;9.50;99.90;;;;;;5073634;28;20179;-64
2021/05/14 03:22:59;;;;;;;1999.90;999.90;;;9.40;99.90;;;;;;5073062;28;20652;-64
2021/05/14 03:25:25;;;;;;;1999.90;999.90;;;9.40;99.90;;;;;;5073514;28;20598;-62
2021/05/14 03:27:50;;;;;;;1999.90;999.90;;;9.40;99.90;;;;;;5073758;28;20711;-63
2021/05/14 03:30:16;;;;;;;1999.90;999.90;;;9.40;99.90;;;;;;5073613;28;20169;-62
2021/05/14 03:32:44;;;;;;;1999.90;999.90;;;9.30;99.90;;;;;;5073523;28;20173;-63
2021/05/14 03:35:10;;;;;;;1999.90;999.90;;;9.30;99.90;;;;;;5072891;28;20471;-66
2021/05/14 03:37:37;;;;;;;1999.90;999.90;;;9.30;99.90;;;;;;5073509;28;20399;-65
2021/05/14 03:40:14;;;;;;;1999.90;999.90;;;9.30;99.90;;;;;;5073701;28;20402;-66
2021/05/14 03:42:40;;;;;;;1999.90;999.90;;;9.20;99.90;;;;;;5072499;28;20438;-65
2021/05/14 03:45:09;;;;;;;1999.90;999.90;;;9.10;99.90;;;;;;5072881;28;20437;-63
2021/05/14 03:47:35;;;;;;;1999.90;999.90;;;9.10;99.90;;;;;;5073213;28;20227;-63
2021/05/14 03:50:00;;;;;;;1999.90;999.90;;;9.00;99.90;;;;;;5073130;28;20407;-62
2021/05/14 03:52:26;;;;;;;1999.90;999.90;;;9.00;99.90;;;;;;5073104;28;20916;-63
2021/05/14 03:54:51;;;;;;;1999.90;999.90;;;9.00;99.90;;;;;;5072572;28;20212;-64
2021/05/14 03:57:17;;;;;;;1999.90;999.90;;;9.10;99.90;;;;;;5073029;28;20176;-62
2021/05/14 03:59:43;;;;;;;1999.90;999.90;;;9.10;99.90;;;;;;5073017;28;20199;-63
2021/05/14 04:02:10;;;;;;;1999.90;999.90;;;9.20;99.90;;;;;;5072880;28;20192;-63
2021/05/14 04:04:35;;;;;;;1999.90;999.90;;;9.20;99.90;;;;;;5072994;28;20736;-63
2021/05/14 04:07:04;;;;;;;1999.90;999.90;;;9.20;99.90;;;;;;5072527;28;20490;-64
2021/05/14 04:09:32;;;;;;;1999.90;999.90;;;9.10;99.90;;;;;;5072901;28;20183;-63
2021/05/14 04:14:30;;;;;;;1999.90;999.90;;;9.10;99.90;;;;;;5072573;28;20454;-63
2021/05/14 04:16:57;;;;;;;1999.90;999.90;;;9.10;99.90;;;;;;5072346;28;20394;-63
2021/05/14 04:19:24;;;;;;;1999.90;999.90;;;9.10;99.90;;;;;;5072497;28;20414;-63
2021/05/14 04:21:52;;;;;;;1999.90;999.90;;;9.20;99.90;;;;;;5072480;28;20488;-62
2021/05/14 04:24:19;;;;;;;1999.90;999.90;;;9.10;99.90;;;;;;5072492;28;20552;-62
2021/05/14 04:26:45;;;;;;;1999.90;999.90;;;9.00;99.90;;;;;;5072081;28;20421;-64
2021/05/14 04:29:10;;;;;;;1999.90;999.90;;;9.10;99.90;;;;;;5072345;28;20401;-64
2021/05/14 04:31:36;;;;;;;1999.90;999.90;;;9.20;99.90;;;;;;5072344;28;20400;-63
2021/05/14 04:34:02;;;;;;;1999.90;999.90;;;9.30;99.90;;;;;;5071281;28;20198;-66
2021/05/14 04:36:27;;;;;;;1999.90;999.90;;;9.30;99.90;;;;;;5072099;28;20165;-64
2021/05/14 04:38:53;;;;;;;1999.90;999.90;;;9.30;99.90;;;;;;5072250;28;20224;-64
2021/05/14 04:41:18;;;;;;;1999.90;999.90;;;9.30;99.90;;;;;;5072366;28;20169;-66
2021/05/14 04:43:44;;;;;;;1999.90;999.90;;;9.30;99.90;;;;;;5072272;28;20173;-63
2021/05/14 04:46:10;;;;;;;1999.90;999.90;;;9.40;99.90;;;;;;5071814;28;20202;-63
2021/05/14 04:48:35;;;;;;;1999.90;999.90;;;9.40;99.90;;;;;;5072117;28;20269;-61
2021/05/14 04:51:01;;;;;;;1999.90;999.90;;;9.50;99.90;;;;;;5072205;28;20252;-62
2021/05/14 04:53:29;;;;;;;1999.90;999.90;;;9.50;99.90;;;;;;5072108;28;20173;-60
2021/05/14 04:55:56;;;;;;;1999.90;999.90;;;9.60;99.90;;;;;;5071660;28;20244;-63
2021/05/14 04:58:21;;;;;;;1999.90;999.90;;;9.70;99.90;;;;;;5071945;28;20487;-65
2021/05/14 05:00:47;;;;;;;1999.90;999.90;;;9.80;99.90;;;;;;5072027;28;21000;-62
2021/05/14 05:03:13;;;;;;;1999.90;999.90;;;9.90;99.90;;;;;;5071876;28;20164;-64
2021/05/14 05:05:38;;;;;;;1999.90;999.90;;;10.00;99.90;;;;;;5071819;28;20713;-63
2021/05/14 05:08:04;;;;;;;1999.90;999.90;;;10.00;99.90;;;;;;5071909;28;20180;-63
2021/05/14 05:10:30;;;;;;;1999.90;999.90;;;10.10;99.90;;;;;;5072016;28;20174;-63
2021/05/14 05:12:55;;;;;;;1999.90;999.90;;;10.20;99.90;;;;;;5071806;28;20898;-62
2021/05/14 05:15:21;;;;;;;1999.90;999.90;;;10.20;99.90;;;;;;5071349;28;20208;-62
2021/05/14 05:17:47;;;;;;;1999.90;999.90;;;10.30;99.90;;;;;;5071918;28;20220;-61
2021/05/14 05:20:13;;;;;;;1999.90;999.90;;;10.30;99.90;;;;;;5071761;28;20660;-64
2021/05/14 05:22:38;;;;;;;1999.90;999.90;;;10.40;99.90;;;;;;5071809;28;20193;-65
2021/05/14 05:25:05;;;;;;;1999.90;999.90;;;10.50;99.90;;;;;;5071386;28;20188;-63
2021/05/14 05:27:31;;;;;;;1999.90;999.90;;;10.50;99.90;;;;;;5071594;28;20189;-63
2021/05/14 05:29:56;;;;;;;1999.90;999.90;;;10.50;99.90;;;;;;5071631;28;20487;-64
2021/05/14 05:32:22;;;;;;;1999.90;999.90;;;10.60;99.90;;;;;;5071620;28;20169;-63
2021/05/14 05:34:47;;;;;;;1999.90;999.90;;;10.70;99.90;;;;;;5071271;28;20213;-63
2021/05/14 05:37:13;;;;;;;1999.90;999.90;;;10.70;99.90;;;;;;5071584;28;20642;-63
2021/05/14 05:39:38;;;;;;;1999.90;999.90;;;10.70;99.90;;;;;;5071711;28;20174;-63
2021/05/14 05:42:04;;;;;;;1999.90;999.90;;;10.80;99.90;;;;;;5071592;28;20191;-64
2021/05/14 05:44:30;;;;;;;1999.90;999.90;;;10.80;99.90;;;;;;5071412;28;20272;-63
2021/05/14 05:46:56;;;;;;;1999.90;999.90;;;10.80;99.90;;;;;;5074902;28;20432;-63
2021/05/14 05:49:21;;;;;;;1999.90;999.90;;;10.80;99.90;;;;;;5075704;28;20179;-63
2021/05/14 05:51:48;;;;;;;1999.90;999.90;;;10.90;99.90;;;;;;5075407;28;20177;-62
2021/05/14 05:54:14;;;;;;;1999.90;999.90;;;11.00;99.90;;;;;;5075213;28;20203;-63
2021/05/14 05:56:42;;;;;;;1999.90;999.90;;;11.10;99.90;;;;;;5075112;28;20404;-63
2021/05/14 05:59:10;;;;;;;1999.90;999.90;;;11.20;99.90;;;;;;5075144;28;20407;-63
2021/05/14 06:01:36;;;;;;;1999.90;999.90;;;11.40;99.90;;;;;;5075032;28;20393;-64
2021/05/14 06:04:01;;;;;;;1999.90;999.90;;;11.50;99.90;;;;;;5075114;28;20470;-63
2021/05/14 06:06:28;;;;;;;1999.90;999.90;;;11.60;99.90;;;;;;5074917;28;20178;-64
2021/05/14 06:08:54;;;;;;;1999.90;999.90;;;11.80;99.90;;;;;;5075061;28;20224;-63
2021/05/14 06:11:19;;;;;;;1999.90;999.90;;;12.00;99.90;;;;;;5074953;28;20409;-62
2021/05/14 06:13:45;;;;;;;1999.90;999.90;;;12.20;99.90;;;;;;5074887;28;20256;-61
2021/05/14 06:16:10;;;;;;;1999.90;999.90;;;12.30;99.90;;;;;;5074611;28;20252;-61
2021/05/14 06:18:38;;;;;;;1999.90;999.90;;;12.30;99.90;;;;;;5074830;28;20177;-61
2021/05/14 06:21:06;;;;;;;1999.90;999.90;;;12.30;99.90;;;;;;5074965;28;20250;-61
2021/05/14 06:23:32;;;;;;;1999.90;999.90;;;12.20;99.90;;;;;;5074793;28;20452;-61
2021/05/14 06:25:57;;;;;;;1999.90;999.90;;;12.30;99.90;;;;;;5074383;28;20460;-61
2021/05/14 06:28:23;;;;;;;1999.90;999.90;;;12.20;99.90;;;;;;5074762;28;20257;-61
2021/05/14 06:30:52;;;;;;;1999.90;999.90;;;12.20;99.90;;;;;;5074868;28;20177;-62
2021/05/14 06:33:18;;;;;;;1999.90;999.90;;;12.30;99.90;;;;;;5074973;28;20692;-62
2021/05/14 06:35:46;;;;;;;1999.90;999.90;;;12.40;99.90;;;;;;5074223;28;20590;-61
2021/05/14 06:38:12;;;;;;;1999.90;999.90;;;12.50;99.90;;;;;;5074545;28;20413;-61
2021/05/14 06:40:38;;;;;;;1999.90;999.90;;;12.60;99.90;;;;;;5074519;28;20495;-60
2021/05/14 06:43:03;;;;;;;1999.90;999.90;;;12.60;99.90;;;;;;5074534;28;20164;-60
2021/05/14 06:45:29;;;;;;;1999.90;999.90;;;12.70;99.90;;;;;;5074166;28;20191;-61
2021/05/14 06:48:06;;;;;;;1999.90;999.90;;;12.80;99.90;;;;;;5074421;28;20232;-62
2021/05/14 06:50:33;;;;;;;1999.90;999.90;;;12.90;99.90;;;;;;5074255;28;20220;-61
2021/05/14 06:53:00;;;;;;;1999.90;999.90;;;12.90;99.90;;;;;;5074281;28;20409;-62
2021/05/14 06:55:26;;;;;;;1999.90;999.90;;;13.00;99.90;;;;;;5074238;28;20457;-61
2021/05/14 06:57:51;;;;;;;1999.90;999.90;;;13.10;99.90;;;;;;5073235;28;20459;-63
2021/05/14 07:00:18;;;;;;;1999.90;999.90;;;13.20;99.90;;;;;;5074126;28;20243;-62
2021/05/14 07:02:48;;;;;;;1999.90;999.90;;;13.20;99.90;;;;;;5074245;28;20176;-64
2021/05/14 07:05:14;;;;;;;1999.90;999.90;;;13.30;99.90;;;;;;5073608;28;20884;-64
2021/05/14 07:07:41;;;;;;;1999.90;999.90;;;13.30;99.90;;;;;;5073950;28;20904;-63
2021/05/14 07:10:07;;;;;;;1999.90;999.90;;;13.40;99.90;;;;;;5073948;28;20406;-64
2021/05/14 07:12:35;;;;;;;1999.90;999.90;;;13.60;99.90;;;;;;5073835;28;20442;-62
2021/05/14 07:15:04;;;;;;;1999.90;999.90;;;13.70;99.90;;;;;;5073525;28;20723;-64
2021/05/14 07:17:29;;;;;;;1999.90;999.90;;;13.70;99.90;;;;;;5073778;28;20410;-65
2021/05/14 07:19:55;;;;;;;1999.90;999.90;;;13.50;99.90;;;;;;5073773;28;20911;-65
2021/05/14 07:22:21;;;;;;;1999.90;999.90;;;13.50;99.90;;;;;;5073762;28;20648;-65
2021/05/14 07:24:46;;;;;;;1999.90;999.90;;;13.50;99.90;;;;;;5073610;28;20200;-65
2021/05/14 07:27:13;;;;;;;1999.90;999.90;;;13.50;99.90;;;;;;5074234;28;20171;-65
2021/05/14 07:29:39;;;;;;;1999.90;999.90;;;13.50;99.90;;;;;;5075136;28;20171;-66
2021/05/14 07:32:05;;;;;;;1999.90;999.90;;;13.50;99.90;;;;;;5074174;28;20408;-66
2021/05/14 07:34:31;;;;;;;1999.90;999.90;;;13.60;99.90;;;;;;5073920;28;20583;-66
2021/05/14 07:36:57;;;;;;;1999.90;999.90;;;13.60;99.90;;;;;;5074186;28;20442;-66
2021/05/14 07:39:23;;;;;;;1999.90;999.90;;;13.70;99.90;;;;;;5074312;28;20178;-65
2021/05/14 07:41:48;;;;;;;1999.90;999.90;;;13.70;99.90;;;;;;5074202;28;20175;-64
2021/05/14 07:44:14;;;;;;;1999.90;999.90;;;13.70;99.90;;;;;;5073353;28;20237;-62
2021/05/14 07:46:40;;;;;;;1999.90;999.90;;;13.70;99.90;;;;;;5073368;28;20523;-64
2021/05/14 07:49:05;;;;;;;1999.90;999.90;;;13.80;99.90;;;;;;5073822;28;20172;-63
2021/05/14 07:51:31;;;;;;;1999.90;999.90;;;13.90;99.90;;;;;;5073928;28;20171;-64
2021/05/14 07:53:57;;;;;;;1999.90;999.90;;;14.00;99.90;;;;;;5073836;28;20174;-63
2021/05/14 07:56:23;;;;;;;1999.90;999.90;;;14.00;99.90;;;;;;5073715;28;20228;-62
2021/05/14 07:58:48;;;;;;;1999.90;999.90;;;14.10;99.90;;;;;;5073054;28;20416;-62
2021/05/14 08:01:14;;;;;;;1999.90;999.90;;;14.20;99.90;;;;;;5073063;28;20256;-62
2021/05/14 08:03:40;;;;;;;1999.90;999.90;;;14.20;99.90;;;;;;5073035;28;20222;-62
2021/05/14 08:06:05;;;;;;;1999.90;999.90;;;14.30;99.90;;;;;;5072478;28;20203;-63
2021/05/14 08:08:36;;;;;;;1999.90;999.90;;;14.40;99.90;;;;;;5072689;28;20676;-61
2021/05/14 08:11:01;;;;;;;1999.90;999.90;;;14.60;99.90;;;;;;5072823;28;20182;-62
2021/05/14 08:13:27;;;;;;;1999.90;999.90;;;14.60;99.90;;;;;;5072661;28;20411;-62
2021/05/14 08:15:53;;;;;;;1999.90;999.90;;;14.70;99.90;;;;;;5072316;28;20215;-62
2021/05/14 08:18:19;;;;;;;1999.90;999.90;;;14.80;99.90;;;;;;5072685;28;20199;-62
2021/05/14 08:20:46;;;;;;;1999.90;999.90;;;14.90;99.90;;;;;;5072508;28;20564;-64
2021/05/14 08:23:11;;;;;;;1999.90;999.90;;;14.80;99.90;;;;;;5072808;28;20236;-61
2021/05/14 08:25:38;;;;;;;1999.90;999.90;;;14.90;99.90;;;;;;5072277;28;20523;-62
2021/05/14 08:28:04;;;;;;;1999.90;999.90;;;15.10;99.90;;;;;;5072568;28;20182;-61
2021/05/14 08:30:30;;;;;;;1999.90;999.90;;;15.10;99.90;;;;;;5072444;28;20499;-61
2021/05/14 08:32:56;;;;;;;1999.90;999.90;;;15.20;99.90;;;;;;5072385;28;20494;-61
2021/05/14 08:35:21;;;;;;;1999.90;999.90;;;15.40;99.90;;;;;;5071734;28;20215;-63
2021/05/14 08:37:48;;;;;;;1999.90;999.90;;;15.50;99.90;;;;;;5072582;28;20164;-64
2021/05/14 08:40:14;;;;;;;1999.90;999.90;;;15.70;99.90;;;;;;5072264;28;20663;-64
2021/05/14 08:42:41;;;;;;;1999.90;999.90;;;15.80;99.90;;;;;;5072279;28;20405;-64
2021/05/14 08:45:09;;;;;;;1999.90;999.90;;;16.00;99.90;;;;;;5071910;28;20480;-65
2021/05/14 08:47:39;;;;;;;1999.90;999.90;;;16.10;99.90;;;;;;5072162;28;20406;-64
2021/05/14 08:50:07;;;;;;;1999.90;999.90;;;16.20;99.90;;;;;;5072155;28;20852;-64
2021/05/14 08:52:38;;;;;;;1999.90;999.90;;;16.40;99.90;;;;;;5072172;28;20462;-65
2021/05/14 08:55:06;;;;;;;1999.90;999.90;;;16.50;99.90;;;;;;5071625;28;20466;-63
2021/05/14 08:57:32;;;;;;;1999.90;999.90;;;16.70;99.90;;;;;;5072062;28;20406;-63
2021/05/14 08:59:58;;;;;;;1999.90;999.90;;;17.00;99.90;;;;;;5072087;28;20399;-63
2021/05/14 09:02:24;;;;;;;1999.90;999.90;;;17.20;99.90;;;;;;5071994;28;20490;-63
2021/05/14 09:04:50;;;;;;;1999.90;999.90;;;17.50;99.90;;;;;;5071642;28;20277;-63
2021/05/14 09:07:19;;;;;;;1999.90;999.90;;;17.70;99.90;;;;;;5071931;28;20179;-62
2021/05/14 09:10:05;;;;;;;1999.90;999.90;;;17.90;99.90;;;;;;5071829;28;20181;-62
2021/05/14 09:12:41;;;;;;;1999.90;999.90;;;18.10;99.90;;;;;;5071815;28;20590;-64
2021/05/14 09:15:23;;;;;;;1999.90;999.90;;;18.30;99.90;;;;;;5071440;28;20464;-64
2021/05/14 09:18:20;;;;;;;1999.90;999.90;;;18.40;99.90;;;;;;5072038;28;20406;-63
2021/05/14 09:21:00;;;;;;;1999.90;999.90;;;18.40;99.90;;;;;;5071112;28;20799;-64
2021/05/14 09:23:27;;;;;;;1999.90;999.90;;;17.80;99.90;;;;;;5050806;28;20452;-65
2021/05/14 09:25:59;;;;;;;1999.90;999.90;;;17.70;99.90;;;;;;5047069;28;20429;-63
2021/05/14 09:28:25;;;;;;;1999.90;999.90;;;18.00;99.90;;;;;;5049492;28;20399;-64
2021/05/14 09:31:11;;;;;;;1999.90;999.90;;;17.90;99.90;;;;;;5050598;28;20776;-64
2021/05/14 09:33:49;;;;;;;1999.90;999.90;;;17.50;99.90;;;;;;5049962;28;20581;-63
2021/05/14 09:36:19;;;;;;;1999.90;999.90;;;17.00;99.90;;;;;;5049703;28;20412;-63
2021/05/14 09:39:06;;;;;;;1999.90;999.90;;;16.60;99.90;;;;;;5049878;28;20427;-66
2021/05/14 09:41:31;;;;;;;1999.90;999.90;;;16.20;99.90;;;;;;5048633;28;20406;-65
2021/05/14 09:44:05;;;;;;;1999.90;999.90;;;16.00;99.90;;;;;;5049367;28;20403;-65
2021/05/14 09:46:43;;;;;;;1999.90;999.90;;;15.80;99.90;;;;;;5049489;28;20172;-65
2021/05/14 09:49:17;;;;;;;1999.90;999.90;;;15.90;99.90;;;;;;5049301;28;21411;-63
2021/05/14 09:51:45;;;;;;;1999.90;999.90;;;15.90;99.90;;;;;;5049820;28;20402;-64
2021/05/14 09:54:38;;;;;;;1999.90;999.90;;;16.00;99.90;;;;;;5048914;28;20529;-63
2021/05/14 09:57:36;;;;;;;1999.90;999.90;;;16.10;99.90;;;;;;5047496;28;20836;-64
2021/05/14 10:00:05;;;;;;;1999.90;999.90;;;16.00;99.90;;;;;;5049794;28;20464;-62
2021/05/14 10:02:36;;;;;;;1999.90;999.90;;;16.00;99.90;;;;;;5049127;28;20411;-63
2021/05/14 10:05:12;;;;;;;1999.90;999.90;;;16.00;99.90;;;;;;5048846;28;20802;-63
2021/05/14 10:07:40;;;;;;;1999.90;999.90;;;16.10;99.90;;;;;;5049696;28;20447;-62
2021/05/14 10:10:08;;;;;;;1999.90;999.90;;;16.40;99.90;;;;;;5049041;28;20414;-62
2021/05/14 10:12:35;;;;;;;1999.90;999.90;;;16.70;99.90;;;;;;5049299;28;20405;-62
2021/05/14 10:15:03;;;;;;;1999.90;999.90;;;16.80;99.90;;;;;;5049214;28;20492;-63
2021/05/14 10:17:29;;;;;;;1999.90;999.90;;;17.00;99.90;;;;;;5048934;28;20447;-64
2021/05/14 10:19:57;;;;;;;1999.90;999.90;;;17.10;99.90;;;;;;5049653;28;20442;-62
2021/05/14 10:22:28;;;;;;;1999.90;999.90;;;17.10;99.90;;;;;;5049500;28;20401;-63
2021/05/14 10:24:58;;;;;;;1999.90;999.90;;;17.10;99.90;;;;;;5048398;28;20564;-63
2021/05/14 10:27:27;;;;;;;1999.90;999.90;;;17.10;99.90;;;;;;5049404;28;20470;-64
2021/05/14 10:29:55;;;;;;;1999.90;999.90;;;17.10;99.90;;;;;;5049156;28;20939;-62
2021/05/14 10:32:46;;;;;;;1999.90;999.90;;;17.10;99.90;;;;;;5049704;28;20412;-62
2021/05/14 10:35:26;;;;;;;1999.90;999.90;;;16.90;99.90;;;;;;5052504;28;20877;-64
2021/05/14 10:38:01;;;;;;;1999.90;999.90;;;16.40;99.90;;;;;;5052976;28;20409;-64
2021/05/14 10:40:33;;;;;;;1999.90;999.90;;;15.90;99.90;;;;;;5052500;28;20387;-62
2021/05/14 10:43:03;;;;;;;1999.90;999.90;;;15.60;99.90;;;;;;5052735;28;20408;-64
2021/05/14 10:45:35;;;;;;;1999.90;999.90;;;15.00;99.90;;;;;;5052399;28;20950;-63
2021/05/14 10:48:01;;;;;;;1999.90;999.90;;;14.50;99.90;;;;;;5052392;28;20414;-64
2021/05/14 10:50:32;;;;;;;1999.90;999.90;;;14.20;99.90;;;;;;5052641;28;21016;-64
2021/05/14 10:53:17;;;;;;;1999.90;999.90;;;14.10;99.90;;;;;;5052372;28;20406;-64
2021/05/14 10:55:44;;;;;;;1999.90;999.90;;;14.20;99.90;;;;;;5051780;28;20466;-65
2021/05/14 10:58:09;;;;;;;1999.90;999.90;;;14.30;99.90;;;;;;5052412;28;20409;-62
2021/05/14 11:00:39;;;;;;;1999.90;999.90;;;14.60;99.90;;;;;;5047790;28;20424;-64
2021/05/14 11:03:11;;;;;;;1999.90;999.90;;;14.80;99.90;;;;;;5048292;28;20184;-64
2021/05/14 11:05:39;;;;;;;1999.90;999.90;;;15.10;99.90;;;;;;5051613;28;20457;-64
2021/05/14 11:08:05;;;;;;;1999.90;999.90;;;15.40;99.90;;;;;;5051837;28;20414;-64
2021/05/14 11:10:35;;;;;;;1999.90;999.90;;;15.60;99.90;;;;;;5051645;28;20466;-64
2021/05/14 11:13:34;;;;;;;1999.90;999.90;;;16.00;99.90;;;;;;5052112;28;20846;-65
2021/05/14 11:16:41;;;;;;;1999.90;999.90;;;16.40;99.90;;;;;;5047984;28;20846;-63
2021/05/14 11:19:14;;;;;;;1999.90;999.90;;;16.80;99.90;;;;;;5052163;28;20414;-64
2021/05/14 11:21:55;;;;;;;1999.90;999.90;;;17.10;99.90;;;;;;5052035;28;20557;-64
2021/05/14 11:24:43;;;;;;;1999.90;999.90;;;17.30;99.90;;;;;;5051404;28;20468;-61
2021/05/14 11:27:13;;;;;;;1999.90;999.90;;;17.30;99.90;;;;;;5051955;28;20421;-64
2021/05/14 11:29:45;;;;;;;1999.90;999.90;;;17.40;99.90;;;;;;5051979;28;20924;-63
2021/05/14 11:32:20;;;;;;;1999.90;999.90;;;17.30;99.90;;;;;;5051205;28;20548;-64
2021/05/14 11:35:13;;;;;;;1999.90;999.90;;;17.30;99.90;;;;;;5048251;28;20469;-63
2021/05/14 11:37:56;;;;;;;1999.90;999.90;;;17.30;99.90;;;;;;5047217;28;20537;-62
2021/05/14 11:40:26;;;;;;;1999.90;999.90;;;17.30;99.90;;;;;;5030465;28;20436;-63
2021/05/14 11:42:54;;;;;;;1999.90;999.90;;;17.20;99.90;;;;;;5046404;28;20441;-62
2021/05/14 11:45:21;;;;;;;1999.90;999.90;;;17.10;99.90;;;;;;5047969;28;20452;-64
2021/05/14 11:47:54;;;;;;;1999.90;999.90;;;17.00;99.90;;;;;;5046858;28;20422;-63
2021/05/14 11:50:34;;;;;;;1999.90;999.90;;;17.00;99.90;;;;;;5047376;28;20419;-62
2021/05/14 11:53:03;;;;;;;1999.90;999.90;;;16.80;99.90;;;;;;5046217;28;20426;-60
2021/05/14 11:55:29;;;;;;;1999.90;999.90;;;16.70;99.90;;;;;;5047054;28;20958;-62
2021/05/14 11:57:57;;;;;;;1999.90;999.90;;;16.50;99.90;;;;;;5047474;28;20414;-63
2021/05/14 12:00:41;;;;;;;1999.90;999.90;;;16.20;99.90;;;;;;5047446;28;20413;-62
2021/05/14 12:03:11;;;;;;;1999.90;999.90;;;16.00;99.90;;;;;;5047079;28;20417;-67
2021/05/14 12:05:41;;;;;;;1999.90;999.90;;;15.90;99.90;;;;;;5046749;28;20476;-65
2021/05/14 12:08:15;;;;;;;1999.90;999.90;;;16.00;99.90;;;;;;5047219;28;20489;-63